Colorado Star — 9HA2189 — position and weather

sailwx.info

Track history (hours):
 
Tides and Currents Weather Stations Pressure Air Temp Water Temp Dewpoint Dewpoint Depression Visibility Wind Speed Wind Dir Waves Ship Positions

Colorado Star

Last reported at 2017-Oct-19 23:30 UTC. Time now 2017-Oct-20 00:01 UTC.
Position N 52°30' E 004°16'.

Length 128 m; draft 6.2 m.

Type: Ship. MMSI: 248127000.

Date/timePositionNaut miles runAvg speedWind from/ knotsBaromVisibWave heightAir tempDewpointWater temp
2017-Oct-19 23:30N 52°30' E 004°16'612.9
2017-Oct-19 23:00N 52°29' E 004°26'5 9.2
2017-Oct-19 22:30N 52°28' E 004°34'2 3.7
2017-Oct-19 22:00N 52°28' E 004°37'0 0.4
2017-Oct-19 21:30N 52°28' E 004°37'1 2.7
2017-Oct-19 21:00N 52°28' E 004°39'1 1.0
2017-Oct-19 20:30N 52°28' E 004°40'3 5.6
2017-Oct-19 20:00N 52°26' E 004°44'1 2.3
2017-Oct-19 19:27N 52°25' E 004°45'0 0.0
2017-Oct-19 19:00N 52°25' E 004°45'0 0.0
2017-Oct-19 18:24N 52°25' E 004°45'0 0.0
2017-Oct-19 18:00N 52°25' E 004°45'0 0.0
2017-Oct-19 17:30N 52°25' E 004°45'0 0.0
2017-Oct-19 17:00N 52°25' E 004°45'0 0.0
2017-Oct-19 16:30N 52°25' E 004°45'0 0.0
2017-Oct-19 16:00N 52°25' E 004°45'0 0.0
2017-Oct-19 15:30N 52°25' E 004°45'0 0.0
2017-Oct-19 15:00N 52°25' E 004°45'0 0.0
2017-Oct-19 14:30N 52°25' E 004°45'0 0.0
2017-Oct-19 13:57N 52°25' E 004°45'0 0.0
2017-Oct-19 13:30N 52°25' E 004°45'0 0.0
2017-Oct-19 12:57N 52°25' E 004°45'0 0.0
2017-Oct-19 12:30N 52°25' E 004°45'0 0.0
2017-Oct-19 11:57N 52°25' E 004°45'0 0.0
2017-Oct-19 11:30N 52°25' E 004°45'0 0.0
2017-Oct-19 10:57N 52°25' E 004°45'0 0.0
2017-Oct-19 10:30N 52°25' E 004°45'0 0.0
2017-Oct-19 10:00N 52°25' E 004°45'0 0.0
2017-Oct-19 09:30N 52°25' E 004°45'0 0.0
2017-Oct-19 08:57N 52°25' E 004°45'0 0.0
2017-Oct-19 08:30N 52°25' E 004°45'0 0.0
2017-Oct-19 07:57N 52°25' E 004°45'0 0.0
2017-Oct-19 07:24N 52°25' E 004°45'0 0.0
2017-Oct-19 06:30N 52°25' E 004°45'0 0.0
2017-Oct-19 06:00N 52°25' E 004°45'0 0.0
2017-Oct-19 05:21N 52°25' E 004°45'0 0.3
2017-Oct-19 05:00N 52°25' E 004°45'2 5.0
2017-Oct-19 04:30N 52°27' E 004°42'3 6.9
2017-Oct-19 04:00N 52°28' E 004°37'0 0.0
2017-Oct-19 03:30N 52°28' E 004°37'1 1.5
2017-Oct-19 03:00N 52°28' E 004°35'3 5.7
2017-Oct-19 02:31N 52°28' E 004°31'611.7
2017-Oct-19 02:00N 52°28' E 004°21'5 9.2
2017-Oct-19 01:30N 52°29' E 004°14'3 6.3
2017-Oct-19 01:00N 52°30' E 004°09'3 6.3
2017-Oct-19 00:30N 52°33' E 004°07'3 5.3
2017-Oct-19 00:00N 52°35' E 004°05'3 5.6
2017-Oct-18 23:30N 52°38' E 004°03'3 5.7
2017-Oct-18 23:00N 52°40' E 004°01'3 5.9
2017-Oct-18 22:30N 52°43' E 003°60'4 8.7
2017-Oct-18 22:00N 52°48' E 003°58'611.7
2017-Oct-18 21:30N 52°54' E 003°58'811.6
2017-Oct-18 20:47N 53°01' E 004°06'412.4
2017-Oct-18 20:30N 53°03' E 004°10'612.4
2017-Oct-18 19:59N 53°07' E 004°18'612.0
2017-Oct-18 19:30N 53°11' E 004°25'711.7
2017-Oct-18 18:57N 53°17' E 004°29'1111.3
2017-Oct-18 17:59N 53°28' E 004°34'2511.0
2017-Oct-18 15:41N 53°51' E 004°51'266 7.1
2017-Oct-17 02:23N 57°31' E 009°17'3210.5
2017-Oct-16 23:18N 57°45' E 010°11'1111.1
2017-Oct-16 22:20N 57°49' E 010°31'411.0
2017-Oct-16 22:00N 57°49' E 010°37'610.8
2017-Oct-16 21:28N 57°47' E 010°48'611.4
2017-Oct-16 20:59N 57°44' E 010°56'611.6
2017-Oct-16 20:29N 57°39' E 011°03'611.9
2017-Oct-16 20:00N 57°36' E 011°11'611.9
2017-Oct-16 19:30N 57°32' E 011°19'611.8
2017-Oct-16 19:00N 57°27' E 011°27'611.5
2017-Oct-16 18:30N 57°22' E 011°30'611.0
2017-Oct-16 17:59N 57°17' E 011°34'511.2
2017-Oct-16 17:30N 57°11' E 011°37'710.9
2017-Oct-16 16:53N 57°05' E 011°41'610.8
2017-Oct-16 16:20N 56°59' E 011°45'510.7
2017-Oct-16 15:52N 56°55' E 011°48'410.4
2017-Oct-16 15:30N 56°51' E 011°50'7 9.7
2017-Oct-16 14:49N 56°45' E 011°52'911.1
2017-Oct-16 14:00N 56°37' E 011°44'611.9
2017-Oct-16 13:29N 56°32' E 011°39'1611.9
2017-Oct-16 12:10N 56°18' E 011°24'1011.8
2017-Oct-16 11:17N 56°09' E 011°14'3411.4
2017-Oct-16 08:20N 55°41' E 010°42'411.6
2017-Oct-16 08:00N 55°39' E 010°36'811.2
2017-Oct-16 07:16N 55°39' E 010°21'311.8
2017-Oct-16 07:00N 55°40' E 010°16'1411.4
2017-Oct-16 05:48N 55°35' E 009°53'54 2.1
2017-Oct-15 04:37N 56°07' E 011°10'811.3
2017-Oct-15 03:56N 56°13' E 011°19'1611.1
2017-Oct-15 02:29N 56°27' E 011°33'611.0
2017-Oct-15 01:58N 56°32' E 011°38'611.0
2017-Oct-15 01:25N 56°38' E 011°44'511.2
2017-Oct-15 00:57N 56°42' E 011°49'610.8
2017-Oct-15 00:24N 56°48' E 011°50'612.2
2017-Oct-14 23:57N 56°53' E 011°47'611.9
2017-Oct-14 23:26N 56°59' E 011°43'711.7
2017-Oct-14 22:51N 57°06' E 011°39'511.6
2017-Oct-14 22:25N 57°10' E 011°36'511.5
2017-Oct-14 22:00N 57°15' E 011°33'711.5
2017-Oct-14 21:26N 57°21' E 011°29'511.2
2017-Oct-14 21:00N 57°26' E 011°26'510.8
2017-Oct-14 20:30N 57°30' E 011°20'611.2
2017-Oct-14 20:00N 57°34' E 011°12'611.4
2017-Oct-14 19:26N 57°38' E 011°03'511.3
2017-Oct-14 19:00N 57°41' E 010°56'611.4
2017-Oct-14 18:30N 57°45' E 010°49'611.9
2017-Oct-14 18:00N 57°48' E 010°39'612.3
2017-Oct-14 17:30N 57°48' E 010°27'611.9
2017-Oct-14 17:00N 57°47' E 010°17'611.8
2017-Oct-14 16:30N 57°46' E 010°05'611.9
2017-Oct-14 16:00N 57°45' E 009°54'611.4
2017-Oct-14 15:30N 57°44' E 009°44'611.5
2017-Oct-14 14:59N 57°43' E 009°33'611.9
2017-Oct-14 14:30N 57°42' E 009°22'612.0
2017-Oct-14 13:59N 57°41' E 009°11'612.2
2017-Oct-14 13:27N 57°40' E 008°59'612.1
2017-Oct-14 12:59N 57°39' E 008°48'612.2
2017-Oct-14 12:29N 57°38' E 008°37'711.9
2017-Oct-14 11:56N 57°37' E 008°25'611.8
2017-Oct-14 11:27N 57°36' E 008°15'511.7
2017-Oct-14 11:00N 57°35' E 008°05'811.6
2017-Oct-14 10:17N 57°35' E 007°49'411.8
2017-Oct-14 09:57N 57°35' E 007°42'711.9
2017-Oct-14 09:21N 57°35' E 007°29'513.3
2017-Oct-14 09:00N 57°35' E 007°20'32210.7
2017-Oct-13 02:49N 58°35' W 002°39'411.4
2017-Oct-13 02:30N 58°36' W 002°46'612.6
2017-Oct-13 02:00N 58°39' W 002°57'815.3
2017-Oct-13 01:30N 58°43' W 003°09'713.0
2017-Oct-13 01:00N 58°43' W 003°22'612.1
2017-Oct-13 00:30N 58°44' W 003°33'611.7
2017-Oct-13 00:00N 58°44' W 003°45'611.8
2017-Oct-12 23:30N 58°45' W 003°56'611.7
2017-Oct-12 23:00N 58°45' W 004°07'611.5
2017-Oct-12 22:30N 58°45' W 004°18'193 9.3
2017-Oct-12 01:50N 55°57' W 007°12'4 7.6
2017-Oct-12 01:17N 55°53' W 007°08'3 8.4
2017-Oct-12 00:54N 55°50' W 007°07'3 7.5
2017-Oct-12 00:26N 55°47' W 007°04'3 7.1
2017-Oct-12 00:00N 55°44' W 007°01'3 6.5
2017-Oct-11 23:30N 55°42' W 006°57'3 6.6
2017-Oct-11 22:59N 55°40' W 006°52'3 6.5
2017-Oct-11 22:30N 55°38' W 006°47'4 7.2
2017-Oct-11 22:00N 55°36' W 006°42'4 7.7
2017-Oct-11 21:30N 55°34' W 006°37'5 9.0
2017-Oct-11 21:00N 55°31' W 006°30'4 9.0
2017-Oct-11 20:30N 55°29' W 006°24'5 9.8
2017-Oct-11 20:00N 55°26' W 006°16'510.6
2017-Oct-11 19:30N 55°25' W 006°07'510.6
2017-Oct-11 19:00N 55°22' W 005°59'612.9
2017-Oct-11 18:30N 55°17' W 005°53'612.4
2017-Oct-11 18:00N 55°12' W 005°46'1511.9
2017-Oct-11 16:43N 54°60' W 005°30'138 8.3
2017-Oct-11 00:00N 53°17' W 002°52'0 0.0
2017-Oct-10 23:26N 53°17' W 002°52'0 0.0
2017-Oct-10 22:59N 53°17' W 002°52'0 0.0
2017-Oct-10 22:26N 53°17' W 002°52'0 0.0
2017-Oct-10 21:59N 53°17' W 002°52'0 0.0
2017-Oct-10 21:26N 53°17' W 002°52'0 0.0
2017-Oct-10 20:59N 53°17' W 002°52'0 0.0
2017-Oct-10 20:29N 53°17' W 002°52'0 0.0
2017-Oct-10 19:53N 53°17' W 002°52'0 0.0
2017-Oct-10 19:29N 53°17' W 002°52'0 0.0
2017-Oct-10 18:56N 53°17' W 002°52'0 0.0
2017-Oct-10 18:29N 53°17' W 002°52'0 0.0
2017-Oct-10 17:59N 53°17' W 002°52'0 0.0
2017-Oct-10 17:29N 53°17' W 002°52'0 0.0
2017-Oct-10 16:56N 53°17' W 002°52'0 0.0
2017-Oct-10 16:29N 53°17' W 002°52'0 0.0
2017-Oct-10 15:59N 53°17' W 002°52'0 0.0
2017-Oct-10 15:23N 53°17' W 002°52'0 0.0
2017-Oct-10 14:56N 53°17' W 002°52'0 0.0
2017-Oct-10 13:56N 53°17' W 002°52'0 0.0
2017-Oct-10 13:29N 53°17' W 002°52'0 0.0
2017-Oct-10 12:56N 53°17' W 002°52'0 0.0
2017-Oct-10 12:20N 53°17' W 002°52'0 0.0
2017-Oct-10 11:56N 53°17' W 002°52'0 0.0
2017-Oct-10 11:29N 53°17' W 002°52'0 0.0
2017-Oct-10 10:56N 53°17' W 002°52'0 0.0
2017-Oct-10 10:29N 53°17' W 002°52'0 0.0
2017-Oct-10 09:59N 53°17' W 002°52'0 0.0
2017-Oct-10 09:23N 53°17' W 002°52'0 0.0
2017-Oct-10 08:59N 53°17' W 002°52'0 0.0
2017-Oct-10 08:29N 53°17' W 002°52'0 0.0
2017-Oct-10 07:59N 53°17' W 002°52'0 0.0
2017-Oct-10 07:29N 53°17' W 002°52'0 0.0
2017-Oct-10 06:56N 53°17' W 002°52'0 0.0
2017-Oct-10 06:29N 53°17' W 002°52'0 0.0
2017-Oct-10 05:59N 53°17' W 002°52'0 0.0
2017-Oct-10 05:29N 53°17' W 002°52'0 0.0
2017-Oct-10 04:56N 53°17' W 002°52'0 0.0
2017-Oct-10 04:26N 53°17' W 002°52'0 0.0
2017-Oct-10 03:59N 53°17' W 002°52'0 0.0
2017-Oct-10 03:29N 53°17' W 002°52'0 0.0
2017-Oct-10 02:59N 53°17' W 002°52'0 0.0
2017-Oct-10 02:23N 53°17' W 002°52'0 0.0
2017-Oct-10 01:59N 53°17' W 002°52'0 0.0
2017-Oct-10 01:29N 53°17' W 002°52'0 0.0
2017-Oct-10 00:59N 53°17' W 002°52'0 0.0
2017-Oct-10 00:26N 53°17' W 002°52'0 0.0
2017-Oct-09 23:59N 53°17' W 002°52'  
Track history (hours):
 
Tides and Currents Weather Stations Pressure Air Temp Water Temp Dewpoint Dewpoint Depression Visibility Wind Speed Wind Dir Waves Ship Positions

Colorado Star

Last reported at 2017-Oct-19 23:30 UTC. Time now 2017-Oct-20 00:01 UTC.
Position N 52°30' E 004°16'.

Length 128 m; draft 6.2 m.

Type: Ship. MMSI: 248127000.

Date/timePositionNaut miles runAvg speedWind from/ knotsBaromVisibWave heightAir tempDewpointWater temp
2017-Oct-19 23:30N 52°30' E 004°16'612.9
2017-Oct-19 23:00N 52°29' E 004°26'5 9.2
2017-Oct-19 22:30N 52°28' E 004°34'2 3.7
2017-Oct-19 22:00N 52°28' E 004°37'0 0.4
2017-Oct-19 21:30N 52°28' E 004°37'1 2.7
2017-Oct-19 21:00N 52°28' E 004°39'1 1.0
2017-Oct-19 20:30N 52°28' E 004°40'3 5.6
2017-Oct-19 20:00N 52°26' E 004°44'1 2.3
2017-Oct-19 19:27N 52°25' E 004°45'0 0.0
2017-Oct-19 19:00N 52°25' E 004°45'0 0.0
2017-Oct-19 18:24N 52°25' E 004°45'0 0.0
2017-Oct-19 18:00N 52°25' E 004°45'0 0.0
2017-Oct-19 17:30N 52°25' E 004°45'0 0.0
2017-Oct-19 17:00N 52°25' E 004°45'0 0.0
2017-Oct-19 16:30N 52°25' E 004°45'0 0.0
2017-Oct-19 16:00N 52°25' E 004°45'0 0.0
2017-Oct-19 15:30N 52°25' E 004°45'0 0.0
2017-Oct-19 15:00N 52°25' E 004°45'0 0.0
2017-Oct-19 14:30N 52°25' E 004°45'0 0.0
2017-Oct-19 13:57N 52°25' E 004°45'0 0.0
2017-Oct-19 13:30N 52°25' E 004°45'0 0.0
2017-Oct-19 12:57N 52°25' E 004°45'0 0.0
2017-Oct-19 12:30N 52°25' E 004°45'0 0.0
2017-Oct-19 11:57N 52°25' E 004°45'0 0.0
2017-Oct-19 11:30N 52°25' E 004°45'0 0.0
2017-Oct-19 10:57N 52°25' E 004°45'0 0.0
2017-Oct-19 10:30N 52°25' E 004°45'0 0.0
2017-Oct-19 10:00N 52°25' E 004°45'0 0.0
2017-Oct-19 09:30N 52°25' E 004°45'0 0.0
2017-Oct-19 08:57N 52°25' E 004°45'0 0.0
2017-Oct-19 08:30N 52°25' E 004°45'0 0.0
2017-Oct-19 07:57N 52°25' E 004°45'0 0.0
2017-Oct-19 07:24N 52°25' E 004°45'0 0.0
2017-Oct-19 06:30N 52°25' E 004°45'0 0.0
2017-Oct-19 06:00N 52°25' E 004°45'0 0.0
2017-Oct-19 05:21N 52°25' E 004°45'0 0.3
2017-Oct-19 05:00N 52°25' E 004°45'2 5.0
2017-Oct-19 04:30N 52°27' E 004°42'3 6.9
2017-Oct-19 04:00N 52°28' E 004°37'0 0.0
2017-Oct-19 03:30N 52°28' E 004°37'1 1.5
2017-Oct-19 03:00N 52°28' E 004°35'3 5.7
2017-Oct-19 02:31N 52°28' E 004°31'611.7
2017-Oct-19 02:00N 52°28' E 004°21'5 9.2
2017-Oct-19 01:30N 52°29' E 004°14'3 6.3
2017-Oct-19 01:00N 52°30' E 004°09'3 6.3
2017-Oct-19 00:30N 52°33' E 004°07'3 5.3
2017-Oct-19 00:00N 52°35' E 004°05'3 5.6
2017-Oct-18 23:30N 52°38' E 004°03'3 5.7
2017-Oct-18 23:00N 52°40' E 004°01'3 5.9
2017-Oct-18 22:30N 52°43' E 003°60'4 8.7
2017-Oct-18 22:00N 52°48' E 003°58'611.7
2017-Oct-18 21:30N 52°54' E 003°58'811.6
2017-Oct-18 20:47N 53°01' E 004°06'412.4
2017-Oct-18 20:30N 53°03' E 004°10'612.4
2017-Oct-18 19:59N 53°07' E 004°18'612.0
2017-Oct-18 19:30N 53°11' E 004°25'711.7
2017-Oct-18 18:57N 53°17' E 004°29'1111.3
2017-Oct-18 17:59N 53°28' E 004°34'2511.0
2017-Oct-18 15:41N 53°51' E 004°51'266 7.1
2017-Oct-17 02:23N 57°31' E 009°17'3210.5
2017-Oct-16 23:18N 57°45' E 010°11'1111.1
2017-Oct-16 22:20N 57°49' E 010°31'411.0
2017-Oct-16 22:00N 57°49' E 010°37'610.8
2017-Oct-16 21:28N 57°47' E 010°48'611.4
2017-Oct-16 20:59N 57°44' E 010°56'611.6
2017-Oct-16 20:29N 57°39' E 011°03'611.9
2017-Oct-16 20:00N 57°36' E 011°11'611.9
2017-Oct-16 19:30N 57°32' E 011°19'611.8
2017-Oct-16 19:00N 57°27' E 011°27'611.5
2017-Oct-16 18:30N 57°22' E 011°30'611.0
2017-Oct-16 17:59N 57°17' E 011°34'511.2
2017-Oct-16 17:30N 57°11' E 011°37'710.9
2017-Oct-16 16:53N 57°05' E 011°41'610.8
2017-Oct-16 16:20N 56°59' E 011°45'510.7
2017-Oct-16 15:52N 56°55' E 011°48'410.4
2017-Oct-16 15:30N 56°51' E 011°50'7 9.7
2017-Oct-16 14:49N 56°45' E 011°52'911.1
2017-Oct-16 14:00N 56°37' E 011°44'611.9
2017-Oct-16 13:29N 56°32' E 011°39'1611.9
2017-Oct-16 12:10N 56°18' E 011°24'1011.8
2017-Oct-16 11:17N 56°09' E 011°14'3411.4
2017-Oct-16 08:20N 55°41' E 010°42'411.6
2017-Oct-16 08:00N 55°39' E 010°36'811.2
2017-Oct-16 07:16N 55°39' E 010°21'311.8
2017-Oct-16 07:00N 55°40' E 010°16'1411.4
2017-Oct-16 05:48N 55°35' E 009°53'54 2.1
2017-Oct-15 04:37N 56°07' E 011°10'811.3
2017-Oct-15 03:56N 56°13' E 011°19'1611.1
2017-Oct-15 02:29N 56°27' E 011°33'611.0
2017-Oct-15 01:58N 56°32' E 011°38'611.0
2017-Oct-15 01:25N 56°38' E 011°44'511.2
2017-Oct-15 00:57N 56°42' E 011°49'610.8
2017-Oct-15 00:24N 56°48' E 011°50'612.2
2017-Oct-14 23:57N 56°53' E 011°47'611.9
2017-Oct-14 23:26N 56°59' E 011°43'711.7
2017-Oct-14 22:51N 57°06' E 011°39'511.6
2017-Oct-14 22:25N 57°10' E 011°36'511.5
2017-Oct-14 22:00N 57°15' E 011°33'711.5
2017-Oct-14 21:26N 57°21' E 011°29'511.2
2017-Oct-14 21:00N 57°26' E 011°26'510.8
2017-Oct-14 20:30N 57°30' E 011°20'611.2
2017-Oct-14 20:00N 57°34' E 011°12'611.4
2017-Oct-14 19:26N 57°38' E 011°03'511.3
2017-Oct-14 19:00N 57°41' E 010°56'611.4
2017-Oct-14 18:30N 57°45' E 010°49'611.9
2017-Oct-14 18:00N 57°48' E 010°39'612.3
2017-Oct-14 17:30N 57°48' E 010°27'611.9
2017-Oct-14 17:00N 57°47' E 010°17'611.8
2017-Oct-14 16:30N 57°46' E 010°05'611.9
2017-Oct-14 16:00N 57°45' E 009°54'611.4
2017-Oct-14 15:30N 57°44' E 009°44'611.5
2017-Oct-14 14:59N 57°43' E 009°33'611.9
2017-Oct-14 14:30N 57°42' E 009°22'612.0
2017-Oct-14 13:59N 57°41' E 009°11'612.2
2017-Oct-14 13:27N 57°40' E 008°59'612.1
2017-Oct-14 12:59N 57°39' E 008°48'612.2
2017-Oct-14 12:29N 57°38' E 008°37'711.9
2017-Oct-14 11:56N 57°37' E 008°25'611.8
2017-Oct-14 11:27N 57°36' E 008°15'511.7
2017-Oct-14 11:00N 57°35' E 008°05'811.6
2017-Oct-14 10:17N 57°35' E 007°49'411.8
2017-Oct-14 09:57N 57°35' E 007°42'711.9
2017-Oct-14 09:21N 57°35' E 007°29'513.3
2017-Oct-14 09:00N 57°35' E 007°20'32210.7
2017-Oct-13 02:49N 58°35' W 002°39'411.4
2017-Oct-13 02:30N 58°36' W 002°46'612.6
2017-Oct-13 02:00N 58°39' W 002°57'815.3
2017-Oct-13 01:30N 58°43' W 003°09'713.0
2017-Oct-13 01:00N 58°43' W 003°22'612.1
2017-Oct-13 00:30N 58°44' W 003°33'611.7
2017-Oct-13 00:00N 58°44' W 003°45'611.8
2017-Oct-12 23:30N 58°45' W 003°56'611.7
2017-Oct-12 23:00N 58°45' W 004°07'611.5
2017-Oct-12 22:30N 58°45' W 004°18'193 9.3
2017-Oct-12 01:50N 55°57' W 007°12'4 7.6
2017-Oct-12 01:17N 55°53' W 007°08'3 8.4
2017-Oct-12 00:54N 55°50' W 007°07'3 7.5
2017-Oct-12 00:26N 55°47' W 007°04'3 7.1
2017-Oct-12 00:00N 55°44' W 007°01'3 6.5
2017-Oct-11 23:30N 55°42' W 006°57'3 6.6
2017-Oct-11 22:59N 55°40' W 006°52'3 6.5
2017-Oct-11 22:30N 55°38' W 006°47'4 7.2
2017-Oct-11 22:00N 55°36' W 006°42'4 7.7
2017-Oct-11 21:30N 55°34' W 006°37'5 9.0
2017-Oct-11 21:00N 55°31' W 006°30'4 9.0
2017-Oct-11 20:30N 55°29' W 006°24'5 9.8
2017-Oct-11 20:00N 55°26' W 006°16'510.6
2017-Oct-11 19:30N 55°25' W 006°07'510.6
2017-Oct-11 19:00N 55°22' W 005°59'612.9
2017-Oct-11 18:30N 55°17' W 005°53'612.4
2017-Oct-11 18:00N 55°12' W 005°46'1511.9
2017-Oct-11 16:43N 54°60' W 005°30'138 8.3
2017-Oct-11 00:00N 53°17' W 002°52'0 0.0
2017-Oct-10 23:26N 53°17' W 002°52'0 0.0
2017-Oct-10 22:59N 53°17' W 002°52'0 0.0
2017-Oct-10 22:26N 53°17' W 002°52'0 0.0
2017-Oct-10 21:59N 53°17' W 002°52'0 0.0
2017-Oct-10 21:26N 53°17' W 002°52'0 0.0
2017-Oct-10 20:59N 53°17' W 002°52'0 0.0
2017-Oct-10 20:29N 53°17' W 002°52'0 0.0
2017-Oct-10 19:53N 53°17' W 002°52'0 0.0
2017-Oct-10 19:29N 53°17' W 002°52'0 0.0
2017-Oct-10 18:56N 53°17' W 002°52'0 0.0
2017-Oct-10 18:29N 53°17' W 002°52'0 0.0
2017-Oct-10 17:59N 53°17' W 002°52'0 0.0
2017-Oct-10 17:29N 53°17' W 002°52'0 0.0
2017-Oct-10 16:56N 53°17' W 002°52'0 0.0
2017-Oct-10 16:29N 53°17' W 002°52'0 0.0
2017-Oct-10 15:59N 53°17' W 002°52'0 0.0
2017-Oct-10 15:23N 53°17' W 002°52'0 0.0
2017-Oct-10 14:56N 53°17' W 002°52'0 0.0
2017-Oct-10 13:56N 53°17' W 002°52'0 0.0
2017-Oct-10 13:29N 53°17' W 002°52'0 0.0
2017-Oct-10 12:56N 53°17' W 002°52'0 0.0
2017-Oct-10 12:20N 53°17' W 002°52'0 0.0
2017-Oct-10 11:56N 53°17' W 002°52'0 0.0
2017-Oct-10 11:29N 53°17' W 002°52'0 0.0
2017-Oct-10 10:56N 53°17' W 002°52'0 0.0
2017-Oct-10 10:29N 53°17' W 002°52'0 0.0
2017-Oct-10 09:59N 53°17' W 002°52'0 0.0
2017-Oct-10 09:23N 53°17' W 002°52'0 0.0
2017-Oct-10 08:59N 53°17' W 002°52'0 0.0
2017-Oct-10 08:29N 53°17' W 002°52'0 0.0
2017-Oct-10 07:59N 53°17' W 002°52'0 0.0
2017-Oct-10 07:29N 53°17' W 002°52'0 0.0
2017-Oct-10 06:56N 53°17' W 002°52'0 0.0
2017-Oct-10 06:29N 53°17' W 002°52'0 0.0
2017-Oct-10 05:59N 53°17' W 002°52'0 0.0
2017-Oct-10 05:29N 53°17' W 002°52'0 0.0
2017-Oct-10 04:56N 53°17' W 002°52'0 0.0
2017-Oct-10 04:26N 53°17' W 002°52'0 0.0
2017-Oct-10 03:59N 53°17' W 002°52'0 0.0
2017-Oct-10 03:29N 53°17' W 002°52'0 0.0
2017-Oct-10 02:59N 53°17' W 002°52'0 0.0
2017-Oct-10 02:23N 53°17' W 002°52'0 0.0
2017-Oct-10 01:59N 53°17' W 002°52'0 0.0
2017-Oct-10 01:29N 53°17' W 002°52'0 0.0
2017-Oct-10 00:59N 53°17' W 002°52'0 0.0
2017-Oct-10 00:26N 53°17' W 002°52'0 0.0
2017-Oct-09 23:59N 53°17' W 002°52'  

Dump ship's entire track history